Puerto Real, Spain
Current Conditions -  °F | °C
As of 2:30 PM on Saturday 25 Oct 2014 (Local Time) from LEJR Reporting Station
Clear Clear  
Wind Chill: 81°   Ceiling: Unl
Heat Index: 81°   Visibility: 6mi
Dew Point: 48°   Wind: 1mph
Humidity: 32%   Direction: NA
Pressure: 30.03"   Gusts: NA
Location:  36.53°N, 6.19°W
Report Text: LEJR 251230Z VRB01KT CAVOK 27/09 Q1017
Loading
Personal Weather Stations






























Interactive Weather Map
Tropical Storm Tracking
New forecast layout! Learn more

10-Day Weather Forecast

Advertisements
Track Severe Weather on mobile